TAF LFRU
METAR LFRU
LFRU 270830Z AUTO 33025G38KT 9999 BKN039/// BKN046/// BKN058/// ///TCU 07/02 Q1000=
LFRU 270800Z AUTO 35028G39KT 320V030 9999 BKN040/// BKN052/// OVC062/// ///TCU 08/01 Q0999=
LFRU 261800Z AUTO 32019G32KT 280V350 9999 SCT041/// BKN058/// BKN068/// ///CB 08/02 Q0999=
LFRU 261730Z AUTO 31021G32KT 9999 FEW035/// SCT048/// OVC058/// ///TCU 09/03 Q0999=
LFRU 261700Z AUTO 31019KT 270V330 9999 FEW035/// SCT066/// BKN140/// ///TCU 09/04 Q0999=
WC LFRU
WS LFRU
WV LFRU